SAS74H ENGM-LEMG
Flight info
| Callsign | SAS74H |
|---|---|
| Flight time | N/A |
| Altitude | 38000 |
| Route | VIPPA DCT UPGAS DCT TIPAN DCT EZTIM UM185 DIGSU N866 GASGU/N0451F370 N866 SAM/N0451F380 N63 LELNA/N0451F370 DCT NOVAN/N0454F390 DCT DELOG DCT CRISA N864 MOCEQ DCT VULPE |
| Aircraft | A20N/M-SDE2E3FGHIRWXY/LB1 |
Departure
| Time | 2026-05-06 08:07 |
|---|---|
| Airport | Oslo-Gardermoen International Airport (ENGM) |
Arrival
| Time | N/A |
|---|---|
| Airport | Málaga-Costa del Sol Airport (LEMG) |
| Time | Latitude | Longitude | Altitude | Speed | Heading |
|---|---|---|---|---|---|
| 2026-05-06 07:37 | 60.19527 | 11.09650 | 691 ft | 0 kts | 196° |
| 2026-05-06 07:45 | 60.19528 | 11.09651 | 691 ft | 0 kts | 196° |
| 2026-05-06 07:59 | 60.19539 | 11.09657 | 682 ft | 4 kts | 196° |
| 2026-05-06 07:59 | 60.19565 | 11.09672 | 685 ft | 4 kts | 196° |
| 2026-05-06 08:00 | 60.19577 | 11.09680 | 691 ft | 0 kts | 196° |
| 2026-05-06 08:02 | 60.19576 | 11.09679 | 691 ft | 1 kts | 196° |
| 2026-05-06 08:02 | 60.19576 | 11.09654 | 686 ft | 3 kts | 295° |
| 2026-05-06 08:02 | 60.19622 | 11.09610 | 690 ft | 11 kts | 342° |
| 2026-05-06 08:03 | 60.19674 | 11.09483 | 691 ft | 13 kts | 283° |
| 2026-05-06 08:03 | 60.19694 | 11.09294 | 687 ft | 15 kts | 287° |
| 2026-05-06 08:03 | 60.19727 | 11.09070 | 685 ft | 18 kts | 286° |
| 2026-05-06 08:03 | 60.19766 | 11.08797 | 685 ft | 21 kts | 286° |
| 2026-05-06 08:04 | 60.19705 | 11.08628 | 682 ft | 20 kts | 195° |
| 2026-05-06 08:04 | 60.19554 | 11.08543 | 685 ft | 25 kts | 196° |
| 2026-05-06 08:04 | 60.19378 | 11.08441 | 683 ft | 28 kts | 195° |
| 2026-05-06 08:04 | 60.19182 | 11.08329 | 679 ft | 30 kts | 196° |
| 2026-05-06 08:05 | 60.18976 | 11.08210 | 678 ft | 31 kts | 196° |
| 2026-05-06 08:05 | 60.18768 | 11.08089 | 680 ft | 31 kts | 196° |
| 2026-05-06 08:05 | 60.18591 | 11.07985 | 677 ft | 16 kts | 199° |
| 2026-05-06 08:05 | 60.18536 | 11.07853 | 676 ft | 14 kts | 276° |
| 2026-05-06 08:06 | 60.18567 | 11.07669 | 679 ft | 14 kts | 285° |
| 2026-05-06 08:06 | 60.18593 | 11.07477 | 681 ft | 15 kts | 288° |
| 2026-05-06 08:06 | 60.18654 | 11.07452 | 679 ft | 11 kts | 34° |
| 2026-05-06 08:06 | 60.18754 | 11.07518 | 681 ft | 31 kts | 16° |
| 2026-05-06 08:07 | 60.19236 | 11.07797 | 682 ft | 110 kts | 16° |
| 2026-05-06 08:07 | 60.20177 | 11.08339 | 682 ft | 168 kts | 16° |
| 2026-05-06 08:07 | 60.21384 | 11.09034 | 1124 ft | 185 kts | 16° |
| 2026-05-06 08:07 | 60.22625 | 11.09756 | 2013 ft | 188 kts | 15° |
| 2026-05-06 08:08 | 60.23898 | 11.10497 | 2836 ft | 195 kts | 14° |
| 2026-05-06 08:08 | 60.25304 | 11.10403 | 3344 ft | 215 kts | 335° |
| 2026-05-06 08:08 | 60.26450 | 11.08356 | 3967 ft | 231 kts | 296° |
| 2026-05-06 08:08 | 60.26762 | 11.05119 | 4528 ft | 248 kts | 260° |
| 2026-05-06 08:09 | 60.25981 | 11.02010 | 5194 ft | 257 kts | 223° |
| 2026-05-06 08:09 | 60.24451 | 11.00133 | 6006 ft | 261 kts | 203° |
| 2026-05-06 08:09 | 60.22707 | 10.99009 | 6822 ft | 264 kts | 196° |
| 2026-05-06 08:09 | 60.20915 | 10.98142 | 7618 ft | 266 kts | 195° |
| 2026-05-06 08:10 | 60.19104 | 10.97293 | 8408 ft | 268 kts | 195° |
| 2026-05-06 08:10 | 60.17290 | 10.96376 | 9179 ft | 269 kts | 197° |
| 2026-05-06 08:10 | 60.15477 | 10.95382 | 9924 ft | 271 kts | 198° |
| 2026-05-06 08:10 | 60.13611 | 10.94297 | 10209 ft | 290 kts | 199° |
| 2026-05-06 08:11 | 60.11606 | 10.93088 | 10344 ft | 311 kts | 199° |
| 2026-05-06 08:11 | 60.09484 | 10.91783 | 10674 ft | 324 kts | 200° |
| 2026-05-06 08:11 | 60.07314 | 10.90441 | 11271 ft | 329 kts | 200° |
| 2026-05-06 08:11 | 60.05116 | 10.89081 | 11916 ft | 332 kts | 201° |
| 2026-05-06 08:12 | 60.02905 | 10.87716 | 12547 ft | 335 kts | 201° |
| 2026-05-06 08:12 | 60.00665 | 10.86334 | 13112 ft | 338 kts | 202° |
| 2026-05-06 08:12 | 59.98402 | 10.84934 | 13639 ft | 344 kts | 203° |
| 2026-05-06 08:12 | 59.96103 | 10.83517 | 14176 ft | 347 kts | 203° |
| 2026-05-06 08:13 | 59.93791 | 10.82095 | 14745 ft | 348 kts | 203° |
| 2026-05-06 08:13 | 59.91471 | 10.80673 | 15318 ft | 350 kts | 204° |
| 2026-05-06 08:13 | 59.89136 | 10.79246 | 15878 ft | 351 kts | 204° |
| 2026-05-06 08:13 | 59.86794 | 10.77813 | 16466 ft | 353 kts | 204° |
| 2026-05-06 08:14 | 59.84438 | 10.76375 | 17045 ft | 355 kts | 204° |
| 2026-05-06 08:14 | 59.82106 | 10.74953 | 17629 ft | 356 kts | 205° |
| 2026-05-06 08:14 | 59.79731 | 10.73508 | 18227 ft | 358 kts | 205° |
| 2026-05-06 08:14 | 59.77341 | 10.72054 | 18762 ft | 360 kts | 205° |
| 2026-05-06 08:15 | 59.74941 | 10.70600 | 19290 ft | 361 kts | 205° |
| 2026-05-06 08:15 | 59.72532 | 10.69144 | 19816 ft | 363 kts | 204° |
| 2026-05-06 08:15 | 59.70111 | 10.67677 | 20361 ft | 364 kts | 204° |
| 2026-05-06 08:15 | 59.67681 | 10.66202 | 20879 ft | 366 kts | 204° |
| 2026-05-06 08:16 | 59.65243 | 10.64722 | 21368 ft | 368 kts | 204° |
| 2026-05-06 08:16 | 59.62793 | 10.63242 | 21847 ft | 369 kts | 204° |
| 2026-05-06 08:16 | 59.60325 | 10.61759 | 22313 ft | 371 kts | 204° |
| 2026-05-06 08:16 | 59.58652 | 10.60759 | 22574 ft | 373 kts | 204° |
| 2026-05-06 08:17 | 59.56165 | 10.59276 | 23010 ft | 374 kts | 204° |
| 2026-05-06 08:17 | 59.53670 | 10.57787 | 23451 ft | 376 kts | 204° |
| 2026-05-06 08:17 | 59.51160 | 10.56288 | 23839 ft | 377 kts | 204° |
| 2026-05-06 08:17 | 59.48648 | 10.54787 | 24197 ft | 378 kts | 204° |
| 2026-05-06 08:18 | 59.46121 | 10.53284 | 24510 ft | 379 kts | 204° |
| 2026-05-06 08:18 | 59.43596 | 10.51780 | 24876 ft | 380 kts | 204° |
| 2026-05-06 08:18 | 59.41096 | 10.50291 | 25221 ft | 381 kts | 204° |
| 2026-05-06 08:18 | 59.38521 | 10.48761 | 25563 ft | 382 kts | 204° |
| 2026-05-06 08:19 | 59.36006 | 10.47271 | 25888 ft | 383 kts | 204° |
| 2026-05-06 08:19 | 59.33451 | 10.45759 | 26218 ft | 384 kts | 204° |
| 2026-05-06 08:19 | 59.30883 | 10.44240 | 26564 ft | 386 kts | 204° |
| 2026-05-06 08:19 | 59.28313 | 10.42725 | 26924 ft | 387 kts | 204° |
| 2026-05-06 08:20 | 59.25729 | 10.41204 | 27243 ft | 388 kts | 204° |